JOHN F KENNEDY INTL

KJFK (JFK)
New York, New York
Towered

Vatsim Metar:
KJFK 250951Z 17007KT 10SM OVC006 21/21 A2984 RMK AO2 LTG DSNT S AND W RAB32E41 SLP103 P0000 T02110211 $

No ATC Online

Traffic

Inbound:
Ident
Type
Name
ETA
Phase
BAW117
B744
Jason Webb EGKK
13:33 Z
Cruse
BAW1
H/A318
Arjun Sanjay EGLL
Unknown

Outbound:
Ident
Type
Name
Destination
Phase